Sikinos — 9HA2865 — position and weather

sailwx.info

Track history (hours):
 
Tides and Currents Weather Stations Pressure Air Temp Water Temp Dewpoint Dewpoint Depression Visibility Wind Speed Wind Dir Waves Ship Positions

Sikinos

Last reported at 2015-Mar-31 20:22 UTC. Time now 2015-Mar-31 20:51 UTC.
Position N 53°44' E 000°30'.

Length 90 m; draft 5.1 m.

Type: Ship (hazmat cat A). MMSI: 256462000.

Date/timePositionNaut miles runAvg speedWind from/ knotsBaromVisibWave heightAir tempDewpointWater temp
2015-Mar-31 20:22N 53°44' E 000°30'0 0.0
2015-Mar-31 19:13N 53°44' E 000°30'0 0.1
2015-Mar-31 18:25N 53°44' E 000°30'0 0.0
2015-Mar-31 17:28N 53°44' E 000°30'0 0.0
2015-Mar-31 16:25N 53°44' E 000°30'0 0.0
2015-Mar-31 15:25N 53°44' E 000°30'0 0.0
2015-Mar-31 14:28N 53°44' E 000°30'0 0.0
2015-Mar-31 13:28N 53°44' E 000°30'0 0.0
2015-Mar-31 12:28N 53°44' E 000°30'0 0.0
2015-Mar-31 11:28N 53°44' E 000°30'0 0.0
2015-Mar-31 10:31N 53°44' E 000°30'0 0.0
2015-Mar-31 09:31N 53°44' E 000°30'0 0.0
2015-Mar-31 08:07N 53°44' E 000°30'0 0.0
2015-Mar-31 07:19N 53°44' E 000°30'0 0.0
2015-Mar-31 06:10N 53°44' E 000°30'0 0.0
2015-Mar-31 05:25N 53°44' E 000°30'0 0.1
2015-Mar-31 04:25N 53°44' E 000°30'0 0.0
2015-Mar-31 02:25N 53°44' E 000°30'0 0.0
2015-Mar-31 01:10N 53°44' E 000°30'0 0.1
2015-Mar-31 00:28N 53°44' E 000°30'0 0.2
2015-Mar-30 23:28N 53°44' E 000°30'0 0.1
2015-Mar-30 22:31N 53°44' E 000°30'0 0.0
2015-Mar-30 21:16N 53°44' E 000°30'0 0.0
2015-Mar-30 20:31N 53°44' E 000°30'0 0.0
2015-Mar-30 19:19N 53°44' E 000°30'0 0.0
2015-Mar-30 18:19N 53°44' E 000°30'0 0.1
2015-Mar-30 17:19N 53°44' E 000°30'0 0.1
2015-Mar-30 16:25N 53°44' E 000°30'0 0.1
2015-Mar-30 15:22N 53°44' E 000°30'0 0.0
2015-Mar-30 14:25N 53°44' E 000°30'0 0.0
2015-Mar-30 13:13N 53°44' E 000°30'0 0.0
2015-Mar-30 12:22N 53°44' E 000°30'0 0.0
2015-Mar-30 10:28N 53°44' E 000°30'0 0.0
2015-Mar-30 09:31N 53°44' E 000°30'0 0.0
2015-Mar-30 08:31N 53°44' E 000°30'0 0.0
2015-Mar-30 07:28N 53°44' E 000°30'0 0.0
2015-Mar-30 06:31N 53°44' E 000°30'0 0.0
2015-Mar-30 05:31N 53°44' E 000°30'6 5.8
2015-Mar-30 04:33N 53°39' E 000°33'43 8.6
2015-Mar-29 23:33N 53°08' E 001°23'1010.4
2015-Mar-29 22:33N 52°59' E 001°32'1111.5
2015-Mar-29 21:33N 52°51' E 001°46'1411.2
2015-Mar-29 20:20N 52°41' E 002°02'911.6
2015-Mar-29 19:33N 52°33' E 002°06'1110.2
2015-Mar-29 18:28N 52°22' E 002°11'48 9.1
2015-Mar-29 13:12N 51°34' E 002°21'811.8
2015-Mar-29 12:33N 51°28' E 002°15'1212.1
2015-Mar-29 11:34N 51°17' E 002°06'1212.0
2015-Mar-29 10:33N 51°09' E 001°52'1312.6
2015-Mar-29 09:33N 51°01' E 001°37'9812.2
2015-Mar-29 01:33N 49°48' W 000°06'9 8.6
2015-Mar-29 00:33N 49°39' W 000°06'9 9.6
2015-Mar-28 23:33N 49°31' E 000°01'5 4.6
2015-Mar-28 22:33N 49°29' E 000°07'0 0.0
2015-Mar-28 21:32N 49°29' E 000°07'0 0.0
2015-Mar-28 20:32N 49°29' E 000°07'0 0.0
2015-Mar-28 19:32N 49°29' E 000°07'0 0.0
2015-Mar-28 18:32N 49°29' E 000°07'0 0.0
2015-Mar-28 17:32N 49°29' E 000°07'0 0.0
2015-Mar-28 16:32N 49°29' E 000°07'0 0.0
2015-Mar-28 15:32N 49°29' E 000°07'0 0.0
2015-Mar-28 14:32N 49°29' E 000°07'0 0.0
2015-Mar-28 13:32N 49°29' E 000°07'0 0.0
2015-Mar-28 12:32N 49°29' E 000°07'0 0.0
2015-Mar-28 11:32N 49°29' E 000°07'0 0.0
2015-Mar-28 10:32N 49°29' E 000°07'0 0.0
2015-Mar-28 09:32N 49°29' E 000°07'0 0.0
2015-Mar-28 08:32N 49°29' E 000°07'0 0.0
2015-Mar-28 07:32N 49°29' E 000°07'0 0.0
2015-Mar-28 06:33N 49°29' E 000°07'1 0.6
2015-Mar-28 05:33N 49°29' E 000°06'6 5.9
2015-Mar-28 04:33N 49°29' W 000°03'0 0.1
2015-Mar-28 03:31N 49°30' W 000°03'0 0.0
2015-Mar-28 02:31N 49°29' W 000°03'0 0.0
2015-Mar-28 01:31N 49°29' W 000°03'0 0.0
2015-Mar-28 00:31N 49°29' W 000°03'0 0.0
2015-Mar-27 23:31N 49°29' W 000°03'0 0.1
2015-Mar-27 22:31N 49°29' W 000°03'0 0.0
2015-Mar-27 21:31N 49°29' W 000°03'0 0.0
2015-Mar-27 20:31N 49°29' W 000°03'1 1.3
2015-Mar-27 19:33N 49°30' W 000°04'10 9.9
2015-Mar-27 18:33N 49°34' W 000°19'1010.0
2015-Mar-27 17:33N 49°35' W 000°34'8 3.1
2015-Mar-27 15:08N 49°39' W 000°44'610.5
2015-Mar-27 14:32N 49°44' W 000°40'6110.1
2015-Mar-27 08:32N 50°32' E 000°19'1111.5
2015-Mar-27 07:33N 50°35' E 000°36'1111.0
2015-Mar-27 06:33N 50°42' E 000°50'23 9.6
2015-Mar-27 04:11N 50°55' E 001°19'6 8.9
2015-Mar-27 03:31N 50°60' E 001°26'10 9.8
2015-Mar-27 02:33N 51°06' E 001°36'1111.2
2015-Mar-27 01:34N 51°15' E 001°47'1212.0
2015-Mar-27 00:34N 51°24' E 001°59'10 9.8
2015-Mar-26 23:33N 51°21' E 002°14'1110.6
2015-Mar-26 22:33N 51°23' E 002°31'10 9.7
2015-Mar-26 21:33N 51°22' E 002°46'1010.0
2015-Mar-26 20:33N 51°24' E 003°02'1010.0
2015-Mar-26 19:33N 51°25' E 003°18'1010.2
2015-Mar-26 18:34N 51°26' E 003°34'6 5.7
2015-Mar-26 17:31N 51°27' E 003°43'0 0.0
2015-Mar-26 16:31N 51°27' E 003°43'0 0.0
2015-Mar-26 15:31N 51°27' E 003°43'0 0.0
2015-Mar-26 14:31N 51°27' E 003°43'0 0.0
2015-Mar-26 13:31N 51°27' E 003°43'0 0.0
2015-Mar-26 12:31N 51°27' E 003°43'0 0.0
2015-Mar-26 11:31N 51°27' E 003°43'0 0.0
2015-Mar-26 10:31N 51°27' E 003°43'0 0.0
2015-Mar-26 09:31N 51°27' E 003°43'0 0.0
2015-Mar-26 08:31N 51°27' E 003°43'0 0.0
2015-Mar-26 07:31N 51°27' E 003°43'0 0.0
2015-Mar-26 06:31N 51°27' E 003°43'0 0.0
2015-Mar-26 05:31N 51°27' E 003°43'0 0.0
2015-Mar-26 04:25N 51°27' E 003°43'0 0.0
2015-Mar-26 03:31N 51°27' E 003°43'0 0.0
2015-Mar-26 02:31N 51°27' E 003°43'0 0.0
2015-Mar-26 01:31N 51°27' E 003°43'0 0.0
2015-Mar-26 00:28N 51°27' E 003°43'0 0.0
2015-Mar-25 23:31N 51°27' E 003°43'0 0.0
2015-Mar-25 22:31N 51°27' E 003°43'0 0.0
2015-Mar-25 21:31N 51°27' E 003°43'0 0.0
2015-Mar-25 20:31N 51°27' E 003°43'0 0.0
2015-Mar-25 19:31N 51°27' E 003°43'0 0.0
2015-Mar-25 18:31N 51°27' E 003°43'1 1.4
2015-Mar-25 17:33N 51°27' E 003°41'7 7.4
2015-Mar-25 16:34N 51°25' E 003°30'1313.4
2015-Mar-25 15:33N 51°24' E 003°08'1211.9
2015-Mar-25 14:33N 51°21' E 002°49'9 8.6
2015-Mar-25 13:31N 51°20' E 002°35'0 0.1
2015-Mar-25 12:29N 51°20' E 002°35'4 4.5
2015-Mar-25 11:33N 51°22' E 002°29'8 8.2
2015-Mar-25 10:33N 51°17' E 002°18'8 7.9
2015-Mar-25 09:33N 51°17' E 002°05'9 9.0
2015-Mar-25 08:33N 51°10' E 001°55'10 9.7
2015-Mar-25 07:33N 51°04' E 001°43'1110.5
2015-Mar-25 06:33N 50°57' E 001°31'13310.7
2015-Mar-24 18:09N 50°27' W 001°54'5 8.5
2015-Mar-24 17:33N 50°28' W 002°01'8 8.0
2015-Mar-24 16:33N 50°31' W 002°13'11 0.3
2015-Mar-23 02:12N 50°30' W 001°56'1312.8
2015-Mar-23 01:09N 50°30' W 001°35'711.4
2015-Mar-23 00:33N 50°30' W 001°25'10 9.6
2015-Mar-22 23:33N 50°30' W 001°09'8 8.2
2015-Mar-22 22:31N 50°30' W 000°56'9 8.0
2015-Mar-22 21:23N 50°30' W 000°42'7 8.2
2015-Mar-22 20:29N 50°30' W 000°30'2511.0
2015-Mar-22 18:10N 50°34' E 000°09'812.8
2015-Mar-22 17:33N 50°36' E 000°21'1312.5
2015-Mar-22 16:33N 50°41' E 000°39'1111.5
2015-Mar-22 15:33N 50°48' E 000°55'14 9.8
2015-Mar-22 14:06N 50°57' E 001°12'5 8.2
2015-Mar-22 13:28N 50°60' E 001°19'7 7.7
2015-Mar-22 12:33N 51°04' E 001°27'10 9.5
2015-Mar-22 11:33N 51°10' E 001°39'1211.8
2015-Mar-22 10:33N 51°20' E 001°50'1413.8
2015-Mar-22 09:33N 51°31' E 002°02'7310.3
2015-Mar-22 02:27N 52°03' E 003°48'8 8.6
2015-Mar-22 01:33N 52°01' E 003°60'1111.1
2015-Mar-22 00:33N 51°55' E 004°15'5 4.1
2015-Mar-21 23:21N 51°53' E 004°23'0 0.0
2015-Mar-21 22:27N 51°53' E 004°23'0 0.0
2015-Mar-21 21:33N 51°53' E 004°23'  
Track history (hours):
 
Tides and Currents Weather Stations Pressure Air Temp Water Temp Dewpoint Dewpoint Depression Visibility Wind Speed Wind Dir Waves Ship Positions

Sikinos

Last reported at 2015-Mar-31 20:22 UTC. Time now 2015-Mar-31 20:51 UTC.
Position N 53°44' E 000°30'.

Length 90 m; draft 5.1 m.

Type: Ship (hazmat cat A). MMSI: 256462000.

Date/timePositionNaut miles runAvg speedWind from/ knotsBaromVisibWave heightAir tempDewpointWater temp
2015-Mar-31 20:22N 53°44' E 000°30'0 0.0
2015-Mar-31 19:13N 53°44' E 000°30'0 0.1
2015-Mar-31 18:25N 53°44' E 000°30'0 0.0
2015-Mar-31 17:28N 53°44' E 000°30'0 0.0
2015-Mar-31 16:25N 53°44' E 000°30'0 0.0
2015-Mar-31 15:25N 53°44' E 000°30'0 0.0
2015-Mar-31 14:28N 53°44' E 000°30'0 0.0
2015-Mar-31 13:28N 53°44' E 000°30'0 0.0
2015-Mar-31 12:28N 53°44' E 000°30'0 0.0
2015-Mar-31 11:28N 53°44' E 000°30'0 0.0
2015-Mar-31 10:31N 53°44' E 000°30'0 0.0
2015-Mar-31 09:31N 53°44' E 000°30'0 0.0
2015-Mar-31 08:07N 53°44' E 000°30'0 0.0
2015-Mar-31 07:19N 53°44' E 000°30'0 0.0
2015-Mar-31 06:10N 53°44' E 000°30'0 0.0
2015-Mar-31 05:25N 53°44' E 000°30'0 0.1
2015-Mar-31 04:25N 53°44' E 000°30'0 0.0
2015-Mar-31 02:25N 53°44' E 000°30'0 0.0
2015-Mar-31 01:10N 53°44' E 000°30'0 0.1
2015-Mar-31 00:28N 53°44' E 000°30'0 0.2
2015-Mar-30 23:28N 53°44' E 000°30'0 0.1
2015-Mar-30 22:31N 53°44' E 000°30'0 0.0
2015-Mar-30 21:16N 53°44' E 000°30'0 0.0
2015-Mar-30 20:31N 53°44' E 000°30'0 0.0
2015-Mar-30 19:19N 53°44' E 000°30'0 0.0
2015-Mar-30 18:19N 53°44' E 000°30'0 0.1
2015-Mar-30 17:19N 53°44' E 000°30'0 0.1
2015-Mar-30 16:25N 53°44' E 000°30'0 0.1
2015-Mar-30 15:22N 53°44' E 000°30'0 0.0
2015-Mar-30 14:25N 53°44' E 000°30'0 0.0
2015-Mar-30 13:13N 53°44' E 000°30'0 0.0
2015-Mar-30 12:22N 53°44' E 000°30'0 0.0
2015-Mar-30 10:28N 53°44' E 000°30'0 0.0
2015-Mar-30 09:31N 53°44' E 000°30'0 0.0
2015-Mar-30 08:31N 53°44' E 000°30'0 0.0
2015-Mar-30 07:28N 53°44' E 000°30'0 0.0
2015-Mar-30 06:31N 53°44' E 000°30'0 0.0
2015-Mar-30 05:31N 53°44' E 000°30'6 5.8
2015-Mar-30 04:33N 53°39' E 000°33'43 8.6
2015-Mar-29 23:33N 53°08' E 001°23'1010.4
2015-Mar-29 22:33N 52°59' E 001°32'1111.5
2015-Mar-29 21:33N 52°51' E 001°46'1411.2
2015-Mar-29 20:20N 52°41' E 002°02'911.6
2015-Mar-29 19:33N 52°33' E 002°06'1110.2
2015-Mar-29 18:28N 52°22' E 002°11'48 9.1
2015-Mar-29 13:12N 51°34' E 002°21'811.8
2015-Mar-29 12:33N 51°28' E 002°15'1212.1
2015-Mar-29 11:34N 51°17' E 002°06'1212.0
2015-Mar-29 10:33N 51°09' E 001°52'1312.6
2015-Mar-29 09:33N 51°01' E 001°37'9812.2
2015-Mar-29 01:33N 49°48' W 000°06'9 8.6
2015-Mar-29 00:33N 49°39' W 000°06'9 9.6
2015-Mar-28 23:33N 49°31' E 000°01'5 4.6
2015-Mar-28 22:33N 49°29' E 000°07'0 0.0
2015-Mar-28 21:32N 49°29' E 000°07'0 0.0
2015-Mar-28 20:32N 49°29' E 000°07'0 0.0
2015-Mar-28 19:32N 49°29' E 000°07'0 0.0
2015-Mar-28 18:32N 49°29' E 000°07'0 0.0
2015-Mar-28 17:32N 49°29' E 000°07'0 0.0
2015-Mar-28 16:32N 49°29' E 000°07'0 0.0
2015-Mar-28 15:32N 49°29' E 000°07'0 0.0
2015-Mar-28 14:32N 49°29' E 000°07'0 0.0
2015-Mar-28 13:32N 49°29' E 000°07'0 0.0
2015-Mar-28 12:32N 49°29' E 000°07'0 0.0
2015-Mar-28 11:32N 49°29' E 000°07'0 0.0
2015-Mar-28 10:32N 49°29' E 000°07'0 0.0
2015-Mar-28 09:32N 49°29' E 000°07'0 0.0
2015-Mar-28 08:32N 49°29' E 000°07'0 0.0
2015-Mar-28 07:32N 49°29' E 000°07'0 0.0
2015-Mar-28 06:33N 49°29' E 000°07'1 0.6
2015-Mar-28 05:33N 49°29' E 000°06'6 5.9
2015-Mar-28 04:33N 49°29' W 000°03'0 0.1
2015-Mar-28 03:31N 49°30' W 000°03'0 0.0
2015-Mar-28 02:31N 49°29' W 000°03'0 0.0
2015-Mar-28 01:31N 49°29' W 000°03'0 0.0
2015-Mar-28 00:31N 49°29' W 000°03'0 0.0
2015-Mar-27 23:31N 49°29' W 000°03'0 0.1
2015-Mar-27 22:31N 49°29' W 000°03'0 0.0
2015-Mar-27 21:31N 49°29' W 000°03'0 0.0
2015-Mar-27 20:31N 49°29' W 000°03'1 1.3
2015-Mar-27 19:33N 49°30' W 000°04'10 9.9
2015-Mar-27 18:33N 49°34' W 000°19'1010.0
2015-Mar-27 17:33N 49°35' W 000°34'8 3.1
2015-Mar-27 15:08N 49°39' W 000°44'610.5
2015-Mar-27 14:32N 49°44' W 000°40'6110.1
2015-Mar-27 08:32N 50°32' E 000°19'1111.5
2015-Mar-27 07:33N 50°35' E 000°36'1111.0
2015-Mar-27 06:33N 50°42' E 000°50'23 9.6
2015-Mar-27 04:11N 50°55' E 001°19'6 8.9
2015-Mar-27 03:31N 50°60' E 001°26'10 9.8
2015-Mar-27 02:33N 51°06' E 001°36'1111.2
2015-Mar-27 01:34N 51°15' E 001°47'1212.0
2015-Mar-27 00:34N 51°24' E 001°59'10 9.8
2015-Mar-26 23:33N 51°21' E 002°14'1110.6
2015-Mar-26 22:33N 51°23' E 002°31'10 9.7
2015-Mar-26 21:33N 51°22' E 002°46'1010.0
2015-Mar-26 20:33N 51°24' E 003°02'1010.0
2015-Mar-26 19:33N 51°25' E 003°18'1010.2
2015-Mar-26 18:34N 51°26' E 003°34'6 5.7
2015-Mar-26 17:31N 51°27' E 003°43'0 0.0
2015-Mar-26 16:31N 51°27' E 003°43'0 0.0
2015-Mar-26 15:31N 51°27' E 003°43'0 0.0
2015-Mar-26 14:31N 51°27' E 003°43'0 0.0
2015-Mar-26 13:31N 51°27' E 003°43'0 0.0
2015-Mar-26 12:31N 51°27' E 003°43'0 0.0
2015-Mar-26 11:31N 51°27' E 003°43'0 0.0
2015-Mar-26 10:31N 51°27' E 003°43'0 0.0
2015-Mar-26 09:31N 51°27' E 003°43'0 0.0
2015-Mar-26 08:31N 51°27' E 003°43'0 0.0
2015-Mar-26 07:31N 51°27' E 003°43'0 0.0
2015-Mar-26 06:31N 51°27' E 003°43'0 0.0
2015-Mar-26 05:31N 51°27' E 003°43'0 0.0
2015-Mar-26 04:25N 51°27' E 003°43'0 0.0
2015-Mar-26 03:31N 51°27' E 003°43'0 0.0
2015-Mar-26 02:31N 51°27' E 003°43'0 0.0
2015-Mar-26 01:31N 51°27' E 003°43'0 0.0
2015-Mar-26 00:28N 51°27' E 003°43'0 0.0
2015-Mar-25 23:31N 51°27' E 003°43'0 0.0
2015-Mar-25 22:31N 51°27' E 003°43'0 0.0
2015-Mar-25 21:31N 51°27' E 003°43'0 0.0
2015-Mar-25 20:31N 51°27' E 003°43'0 0.0
2015-Mar-25 19:31N 51°27' E 003°43'0 0.0
2015-Mar-25 18:31N 51°27' E 003°43'1 1.4
2015-Mar-25 17:33N 51°27' E 003°41'7 7.4
2015-Mar-25 16:34N 51°25' E 003°30'1313.4
2015-Mar-25 15:33N 51°24' E 003°08'1211.9
2015-Mar-25 14:33N 51°21' E 002°49'9 8.6
2015-Mar-25 13:31N 51°20' E 002°35'0 0.1
2015-Mar-25 12:29N 51°20' E 002°35'4 4.5
2015-Mar-25 11:33N 51°22' E 002°29'8 8.2
2015-Mar-25 10:33N 51°17' E 002°18'8 7.9
2015-Mar-25 09:33N 51°17' E 002°05'9 9.0
2015-Mar-25 08:33N 51°10' E 001°55'10 9.7
2015-Mar-25 07:33N 51°04' E 001°43'1110.5
2015-Mar-25 06:33N 50°57' E 001°31'13310.7
2015-Mar-24 18:09N 50°27' W 001°54'5 8.5
2015-Mar-24 17:33N 50°28' W 002°01'8 8.0
2015-Mar-24 16:33N 50°31' W 002°13'11 0.3
2015-Mar-23 02:12N 50°30' W 001°56'1312.8
2015-Mar-23 01:09N 50°30' W 001°35'711.4
2015-Mar-23 00:33N 50°30' W 001°25'10 9.6
2015-Mar-22 23:33N 50°30' W 001°09'8 8.2
2015-Mar-22 22:31N 50°30' W 000°56'9 8.0
2015-Mar-22 21:23N 50°30' W 000°42'7 8.2
2015-Mar-22 20:29N 50°30' W 000°30'2511.0
2015-Mar-22 18:10N 50°34' E 000°09'812.8
2015-Mar-22 17:33N 50°36' E 000°21'1312.5
2015-Mar-22 16:33N 50°41' E 000°39'1111.5
2015-Mar-22 15:33N 50°48' E 000°55'14 9.8
2015-Mar-22 14:06N 50°57' E 001°12'5 8.2
2015-Mar-22 13:28N 50°60' E 001°19'7 7.7
2015-Mar-22 12:33N 51°04' E 001°27'10 9.5
2015-Mar-22 11:33N 51°10' E 001°39'1211.8
2015-Mar-22 10:33N 51°20' E 001°50'1413.8
2015-Mar-22 09:33N 51°31' E 002°02'7310.3
2015-Mar-22 02:27N 52°03' E 003°48'8 8.6
2015-Mar-22 01:33N 52°01' E 003°60'1111.1
2015-Mar-22 00:33N 51°55' E 004°15'5 4.1
2015-Mar-21 23:21N 51°53' E 004°23'0 0.0
2015-Mar-21 22:27N 51°53' E 004°23'0 0.0
2015-Mar-21 21:33N 51°53' E 004°23'  

Dump ship's entire track history